Germantown, Iowa
Current Conditions -  °F | °C
As of 4:55 PM on Wednesday 22 Oct 2014 (Local Time) from KORC Reporting Station
Clear Clear  
Wind Chill: 72°   Ceiling: Unl
Heat Index: 72°   Visibility: 10mi
Dew Point: 50°   Wind: 10mph
Humidity: 46%   Direction: 180°S
Pressure: 29.95"   Gusts: 22mph
Location:  42.9549°N, 95.7402°W
Report Text: KORC 222155Z AUTO 18009G19KT 10SM CLR 22/10 A2995 RMK AO2
Loading
Personal Weather Stations






























Interactive Weather Map
Tropical Storm Tracking
New forecast layout! Learn more

10-Day Weather Forecast

Advertisements
Track Severe Weather on mobile